Time;durP1;ratioP1;P1;durP2;ratioP2;P2;SDS_P1;SDS_P2;PMS_P1;PMS_P2;Temp;Humidity;BMP_temperature;BMP_pressure;BME280_temperature;BME280_humidity;BME280_pressure;Samples;Min_cycle;Max_cycle;Signal;HPM_P1;HPM_P2
2022/08/14 00:01:57;;;;;;;6.20;5.60;;;17.50;98.20;;;;;;5031724;28;20441;-67
2022/08/14 00:04:24;;;;;;;5.80;5.27;;;17.40;98.70;;;;;;5031574;28;20445;-65
2022/08/14 00:06:51;;;;;;;5.80;5.30;;;17.30;99.30;;;;;;5031533;28;20473;-67
2022/08/14 00:09:18;;;;;;;5.47;4.97;;;17.30;99.60;;;;;;5031457;28;20492;-67
2022/08/14 00:11:44;;;;;;;6.30;5.53;;;17.20;99.90;;;;;;5031835;28;20927;-67
2022/08/14 00:14:12;;;;;;;5.60;4.80;;;17.20;99.90;;;;;;5031560;28;20456;-67
2022/08/14 00:16:40;;;;;;;5.17;4.70;;;17.10;99.90;;;;;;5031470;28;20469;-67
2022/08/14 00:19:07;;;;;;;5.90;5.40;;;17.00;99.90;;;;;;5031889;28;20445;-67
2022/08/14 00:21:33;;;;;;;5.80;5.30;;;16.90;99.90;;;;;;5031717;28;20847;-67
2022/08/14 00:24:00;;;;;;;6.70;5.37;;;16.80;99.90;;;;;;5031410;28;20444;-67
2022/08/14 00:26:27;;;;;;;6.20;5.60;;;16.80;99.90;;;;;;5030824;28;20472;-67
2022/08/14 00:28:54;;;;;;;5.60;4.83;;;16.70;99.90;;;;;;5031032;28;20488;-67
2022/08/14 00:31:21;;;;;;;5.60;4.80;;;16.80;99.90;;;;;;5030997;28;20951;-66
2022/08/14 00:33:49;;;;;;;5.47;4.97;;;16.80;99.90;;;;;;5031133;28;20796;-67
2022/08/14 00:36:17;;;;;;;5.40;4.90;;;16.70;99.90;;;;;;5030694;28;20469;-67
2022/08/14 00:38:44;;;;;;;5.20;4.70;;;16.70;99.90;;;;;;5031016;28;20441;-67
2022/08/14 00:41:11;;;;;;;4.60;4.20;;;16.70;99.90;;;;;;5030614;28;20457;-67
2022/08/14 00:43:37;;;;;;;6.10;4.70;;;16.70;99.90;;;;;;5030880;28;21221;-67
2022/08/14 00:46:06;;;;;;;6.63;5.10;;;16.70;99.90;;;;;;5030333;28;20445;-67
2022/08/14 00:48:33;;;;;;;5.67;5.07;;;16.60;99.90;;;;;;5030444;28;21275;-66
2022/08/14 00:51:01;;;;;;;4.80;4.40;;;16.60;99.90;;;;;;5030645;28;20445;-67
2022/08/14 00:53:28;;;;;;;5.67;5.17;;;16.60;99.90;;;;;;5030547;28;20453;-68
2022/08/14 00:55:56;;;;;;;6.03;4.97;;;16.50;99.90;;;;;;5029992;28;20456;-67
2022/08/14 00:58:33;;;;;;;5.63;5.13;;;16.40;99.90;;;;;;5030450;28;20495;-67
2022/08/14 01:01:01;;;;;;;6.33;5.73;;;16.30;99.90;;;;;;5030598;28;20490;-67
2022/08/14 01:03:28;;;;;;;5.37;4.87;;;16.30;99.90;;;;;;5030349;28;20445;-67
2022/08/14 01:05:56;;;;;;;7.40;4.90;;;16.30;99.90;;;;;;5030005;28;20947;-67
2022/08/14 01:08:26;;;;;;;5.80;5.20;;;16.30;99.90;;;;;;5030073;28;21005;-67
2022/08/14 01:10:55;;;;;;;6.37;5.80;;;16.20;99.90;;;;;;5030194;28;20954;-67
2022/08/14 01:13:24;;;;;;;5.57;4.97;;;16.20;99.90;;;;;;5030295;28;20476;-67
2022/08/14 01:15:53;;;;;;;6.80;5.17;;;16.10;99.90;;;;;;5029911;28;20445;-67
2022/08/14 01:21:08;;;;;;;5.40;4.90;;;16.00;99.90;;;;;;5030057;28;20512;-67
2022/08/14 01:23:39;;;;;;;5.97;5.47;;;16.00;99.90;;;;;;5029927;28;20544;-67
2022/08/14 01:26:07;;;;;;;7.20;5.60;;;15.90;99.90;;;;;;5029580;28;20518;-67
2022/08/14 01:28:36;;;;;;;7.90;6.13;;;15.80;99.90;;;;;;5029377;28;20480;-66
2022/08/14 01:31:07;;;;;;;6.23;5.63;;;15.80;99.90;;;;;;5029857;28;20454;-67
2022/08/14 01:33:39;;;;;;;7.10;6.27;;;15.70;99.90;;;;;;5029911;28;20543;-66
2022/08/14 01:36:08;;;;;;;6.20;5.33;;;15.70;99.90;;;;;;5029683;28;20445;-67
2022/08/14 01:38:37;;;;;;;6.27;5.20;;;15.60;99.90;;;;;;5029973;28;20445;-66
2022/08/14 01:41:07;;;;;;;7.27;5.97;;;15.70;99.90;;;;;;5029870;28;20464;-66
2022/08/14 01:43:42;;;;;;;6.80;6.13;;;15.70;99.90;;;;;;5029832;28;20832;-66
2022/08/14 01:46:10;;;;;;;6.10;5.60;;;15.70;99.90;;;;;;5029745;28;20488;-66
2022/08/14 01:48:37;;;;;;;6.10;5.60;;;15.70;99.90;;;;;;5029621;28;20483;-67
2022/08/14 01:51:05;;;;;;;6.67;6.00;;;15.70;99.90;;;;;;5029743;28;20532;-67
2022/08/14 01:53:33;;;;;;;6.47;5.40;;;15.60;99.90;;;;;;5029694;28;20445;-67
2022/08/14 01:56:05;;;;;;;5.80;5.30;;;15.50;99.90;;;;;;5029217;28;20448;-66
2022/08/14 01:58:32;;;;;;;6.87;4.97;;;15.50;99.90;;;;;;5029570;28;20559;-67
2022/08/14 02:00:59;;;;;;;6.87;6.17;;;15.50;99.90;;;;;;5029771;28;20472;-67
2022/08/14 02:03:29;;;;;;;6.13;5.53;;;15.50;99.90;;;;;;5029602;28;20818;-67
2022/08/14 02:05:58;;;;;;;6.37;5.43;;;15.60;99.90;;;;;;5029293;28;20445;-67
2022/08/14 02:08:29;;;;;;;5.93;5.33;;;15.50;99.90;;;;;;5029439;28;20484;-67
2022/08/14 02:13:42;;;;;;;8.03;5.67;;;15.40;99.90;;;;;;5028605;28;20847;-67
2022/08/14 02:16:10;;;;;;;6.20;5.70;;;15.40;99.90;;;;;;5029128;28;20465;-66
2022/08/14 02:18:37;;;;;;;6.97;6.37;;;15.40;99.90;;;;;;5029527;28;20805;-67
2022/08/14 02:21:04;;;;;;;6.20;5.60;;;15.30;99.90;;;;;;5029671;28;21136;-66
2022/08/14 02:23:31;;;;;;;6.33;5.80;;;15.30;99.90;;;;;;5029359;28;20455;-67
2022/08/14 02:26:00;;;;;;;6.63;6.03;;;15.30;99.90;;;;;;5029422;28;20456;-68
2022/08/14 02:28:30;;;;;;;7.33;5.77;;;15.30;99.90;;;;;;5029707;28;20445;-67
2022/08/14 02:30:59;;;;;;;5.93;5.43;;;15.20;99.90;;;;;;5029729;28;20498;-67
2022/08/14 02:33:27;;;;;;;6.70;6.10;;;15.10;99.90;;;;;;5029673;28;20894;-67
2022/08/14 02:35:55;;;;;;;5.93;5.43;;;15.00;99.90;;;;;;5029304;28;20453;-67
2022/08/14 02:38:21;;;;;;;6.57;5.90;;;15.00;99.90;;;;;;5029753;28;20958;-66
2022/08/14 02:40:48;;;;;;;5.70;5.20;;;15.00;99.90;;;;;;5032749;28;20456;-67
2022/08/14 02:43:16;;;;;;;7.03;6.43;;;15.00;99.90;;;;;;5033417;28;20445;-66
2022/08/14 02:45:44;;;;;;;6.13;5.53;;;15.00;99.90;;;;;;5033494;28;20461;-67
2022/08/14 02:48:14;;;;;;;6.23;5.73;;;14.80;99.90;;;;;;5033111;28;21309;-67
2022/08/14 02:50:41;;;;;;;6.80;6.20;;;14.90;99.90;;;;;;5032873;28;20492;-67
2022/08/14 02:53:08;;;;;;;6.77;6.17;;;14.90;99.90;;;;;;5033066;28;20452;-66
2022/08/14 02:55:35;;;;;;;7.60;6.83;;;14.80;99.90;;;;;;5032624;28;20449;-66
2022/08/14 02:58:04;;;;;;;8.43;7.73;;;14.80;99.90;;;;;;5032706;28;20476;-66
2022/08/14 03:00:34;;;;;;;7.30;6.63;;;14.80;99.90;;;;;;5032703;28;20441;-67
2022/08/14 03:03:03;;;;;;;6.87;6.27;;;14.90;99.90;;;;;;5032583;28;20457;-66
2022/08/14 03:05:31;;;;;;;6.30;5.77;;;14.90;99.90;;;;;;5032467;28;20502;-66
2022/08/14 03:08:05;;;;;;;7.03;6.37;;;14.90;99.90;;;;;;5032560;28;20470;-66
2022/08/14 03:10:33;;;;;;;6.97;6.37;;;14.80;99.90;;;;;;5032498;28;20485;-67
2022/08/14 03:13:03;;;;;;;7.43;6.73;;;14.80;99.90;;;;;;5032615;28;20452;-67
2022/08/14 03:15:31;;;;;;;8.23;7.43;;;14.70;99.90;;;;;;5032258;28;20453;-66
2022/08/14 03:17:58;;;;;;;7.47;6.50;;;14.50;99.90;;;;;;5032420;28;21013;-67
2022/08/14 03:20:27;;;;;;;7.00;6.40;;;14.50;99.90;;;;;;5032238;28;20926;-67
2022/08/14 03:22:57;;;;;;;8.00;7.20;;;14.40;99.90;;;;;;5032285;28;20554;-67
2022/08/14 03:25:24;;;;;;;7.93;7.13;;;14.40;99.90;;;;;;5031940;28;20552;-67
2022/08/14 03:27:51;;;;;;;10.00;6.13;;;14.40;99.90;;;;;;5031927;28;20484;-67
2022/08/14 03:30:19;;;;;;;7.20;6.40;;;14.50;99.90;;;;;;5032389;28;20573;-66
2022/08/14 03:32:45;;;;;;;6.67;6.00;;;14.50;99.90;;;;;;5032059;28;20543;-66
2022/08/14 03:35:12;;;;;;;7.73;6.93;;;14.40;99.90;;;;;;5031897;28;20445;-67
2022/08/14 03:37:41;;;;;;;6.90;6.30;;;14.40;99.90;;;;;;5031940;28;20983;-67
2022/08/14 03:40:11;;;;;;;7.40;6.80;;;14.40;99.90;;;;;;5032025;28;20444;-66
2022/08/14 03:42:38;;;;;;;7.67;7.00;;;14.30;99.90;;;;;;5031901;28;20448;-66
2022/08/14 03:45:06;;;;;;;7.67;6.97;;;14.40;99.90;;;;;;5031725;28;20452;-68
2022/08/14 03:47:35;;;;;;;7.83;7.00;;;14.30;99.90;;;;;;5031817;28;20495;-67
2022/08/14 03:50:02;;;;;;;8.23;7.33;;;14.20;99.90;;;;;;5031116;28;20481;-68
2022/08/14 03:52:29;;;;;;;7.80;7.10;;;14.20;99.90;;;;;;5031729;28;20449;-68
2022/08/14 03:54:56;;;;;;;8.80;7.90;;;14.20;99.90;;;;;;5031271;28;20979;-68
2022/08/14 03:57:28;;;;;;;8.40;7.57;;;14.20;99.90;;;;;;5031838;28;20484;-67
2022/08/14 03:59:55;;;;;;;8.50;7.40;;;14.10;99.90;;;;;;5031749;28;20554;-68
2022/08/14 04:02:23;;;;;;;7.27;6.67;;;14.20;99.90;;;;;;5031611;28;20453;-67
2022/08/14 04:04:52;;;;;;;8.07;6.80;;;14.20;99.90;;;;;;5031536;28;20499;-67
2022/08/14 04:07:18;;;;;;;7.90;7.20;;;14.20;99.90;;;;;;5031326;28;20480;-68
2022/08/14 04:09:45;;;;;;;8.13;7.13;;;14.10;99.90;;;;;;5031210;28;20492;-67
2022/08/14 04:12:12;;;;;;;6.70;6.20;;;14.10;99.90;;;;;;5031468;28;20441;-68
2022/08/14 04:14:42;;;;;;;7.20;6.53;;;14.10;99.90;;;;;;5031175;28;20825;-67
2022/08/14 04:17:10;;;;;;;7.07;6.47;;;14.10;99.90;;;;;;5031239;28;20476;-68
2022/08/14 04:19:36;;;;;;;6.57;6.07;;;14.00;99.90;;;;;;5031648;28;20468;-67
2022/08/14 04:22:03;;;;;;;7.90;7.10;;;14.00;99.90;;;;;;5031071;28;20457;-67
2022/08/14 04:24:31;;;;;;;6.10;5.60;;;14.00;99.90;;;;;;5030748;28;20460;-66
2022/08/14 04:26:58;;;;;;;8.27;7.27;;;14.00;99.90;;;;;;5031014;28;20564;-68
2022/08/14 04:29:24;;;;;;;7.93;7.23;;;14.10;99.90;;;;;;5031060;28;20580;-67
2022/08/14 04:31:53;;;;;;;7.60;6.90;;;14.10;99.90;;;;;;5031027;28;20448;-67
2022/08/14 04:34:19;;;;;;;6.83;6.23;;;14.10;99.90;;;;;;5030958;28;20456;-68
2022/08/14 04:44:59;;;;;;;6.80;6.20;;;14.40;99.90;;;;;;5030739;28;20444;-68
2022/08/14 04:50:11;;;;;;;7.60;7.00;;;14.40;99.90;;;;;;5030869;28;21016;-67
2022/08/14 04:52:38;;;;;;;7.37;6.67;;;14.50;99.90;;;;;;5031007;28;20444;-67
2022/08/14 04:55:07;;;;;;;7.10;6.23;;;14.60;99.90;;;;;;5030637;28;20453;-68
2022/08/14 04:57:34;;;;;;;6.70;6.10;;;14.70;99.90;;;;;;5030892;28;20476;-68
2022/08/14 05:00:01;;;;;;;8.07;6.50;;;14.70;99.90;;;;;;5030983;28;20448;-68
2022/08/14 05:02:29;;;;;;;6.70;6.03;;;14.70;99.90;;;;;;5030170;28;20453;-68
2022/08/14 05:04:56;;;;;;;6.27;5.77;;;14.90;99.90;;;;;;5030409;28;20456;-68
2022/08/14 05:07:24;;;;;;;6.40;5.80;;;15.10;99.90;;;;;;5030441;28;20476;-68
2022/08/14 05:09:51;;;;;;;7.10;6.40;;;15.20;99.90;;;;;;5030229;28;20481;-68
2022/08/14 05:12:17;;;;;;;6.97;6.37;;;15.20;99.90;;;;;;5030278;28;20540;-68
2022/08/14 05:14:45;;;;;;;7.17;6.57;;;15.30;99.90;;;;;;5030163;28;20444;-67
2022/08/14 05:17:12;;;;;;;7.60;6.87;;;15.40;99.90;;;;;;5030084;28;20526;-68
2022/08/14 05:19:40;;;;;;;7.60;6.90;;;15.40;99.90;;;;;;5030172;28;20445;-68
2022/08/14 05:22:08;;;;;;;7.30;6.60;;;15.40;99.90;;;;;;5030065;28;20484;-67
2022/08/14 05:24:35;;;;;;;8.37;7.00;;;15.50;99.90;;;;;;5029826;28;20829;-67
2022/08/14 05:27:02;;;;;;;6.83;6.30;;;15.60;99.90;;;;;;5030099;28;21048;-67
2022/08/14 05:29:30;;;;;;;7.13;6.53;;;15.70;99.90;;;;;;5029905;28;20481;-66
2022/08/14 05:31:56;;;;;;;6.70;6.20;;;15.70;99.90;;;;;;5029983;28;20452;-67
2022/08/14 05:34:28;;;;;;;7.27;6.67;;;15.70;99.90;;;;;;5029864;28;20846;-68
2022/08/14 05:36:57;;;;;;;7.00;6.40;;;15.90;99.90;;;;;;5029926;28;20469;-67
2022/08/14 05:39:24;;;;;;;7.80;7.00;;;16.00;99.90;;;;;;5030065;28;20861;-67
2022/08/14 05:41:51;;;;;;;7.13;6.43;;;16.00;99.90;;;;;;5030007;28;20452;-67
2022/08/14 05:44:17;;;;;;;7.47;6.70;;;16.10;99.90;;;;;;5029895;28;20456;-67
2022/08/14 05:46:44;;;;;;;7.10;6.40;;;16.10;99.90;;;;;;5029505;28;20565;-67
2022/08/14 05:49:11;;;;;;;8.40;6.63;;;16.10;99.90;;;;;;5029754;28;20441;-67
2022/08/14 05:51:38;;;;;;;7.03;6.13;;;16.20;99.90;;;;;;5029684;28;20902;-67
2022/08/14 05:54:07;;;;;;;7.73;7.03;;;16.30;99.90;;;;;;5029955;28;20552;-68
2022/08/14 05:56:34;;;;;;;8.10;7.30;;;16.40;99.90;;;;;;5029697;28;20479;-68
2022/08/14 05:59:00;;;;;;;6.97;6.27;;;16.50;99.90;;;;;;5029590;28;20459;-68
2022/08/14 06:01:27;;;;;;;7.60;6.60;;;16.60;99.90;;;;;;5029686;28;20455;-68
2022/08/14 06:03:54;;;;;;;9.97;7.13;;;16.60;99.90;;;;;;5029575;28;20448;-68
2022/08/14 06:06:21;;;;;;;6.80;6.20;;;16.70;99.90;;;;;;5029052;28;20828;-68
2022/08/14 06:08:48;;;;;;;7.17;6.23;;;16.80;99.90;;;;;;5029730;28;20750;-68
2022/08/14 06:11:16;;;;;;;8.20;6.10;;;16.90;99.90;;;;;;5029446;28;21034;-68
2022/08/14 06:13:43;;;;;;;6.90;6.20;;;17.00;99.90;;;;;;5030946;28;20453;-67
2022/08/14 06:16:10;;;;;;;6.53;6.03;;;17.10;99.90;;;;;;5033190;28;21074;-67
2022/08/14 06:18:37;;;;;;;8.10;7.40;;;17.20;99.90;;;;;;5033349;28;20449;-67
2022/08/14 06:21:04;;;;;;;5.90;5.40;;;17.30;99.90;;;;;;5033712;28;20510;-67
2022/08/14 06:23:31;;;;;;;7.20;5.87;;;17.40;99.90;;;;;;5033636;28;20448;-68
2022/08/14 06:25:58;;;;;;;6.80;6.23;;;17.50;99.90;;;;;;5033023;28;20471;-68
2022/08/14 06:28:27;;;;;;;5.53;5.03;;;17.60;99.90;;;;;;5033712;28;20453;-68
2022/08/14 06:30:54;;;;;;;5.10;4.70;;;17.60;99.90;;;;;;5033306;28;20473;-68
2022/08/14 06:33:21;;;;;;;6.23;5.63;;;17.60;99.90;;;;;;5033075;28;20466;-67
2022/08/14 06:35:49;;;;;;;6.27;5.67;;;17.70;99.90;;;;;;5032875;28;20449;-67
2022/08/14 06:38:18;;;;;;;5.97;5.47;;;17.80;99.90;;;;;;5033283;28;20538;-67
2022/08/14 06:40:46;;;;;;;5.70;5.20;;;17.90;99.90;;;;;;5033440;28;20817;-65
2022/08/14 06:43:13;;;;;;;7.07;5.87;;;18.00;99.90;;;;;;5033128;28;20444;-67
2022/08/14 06:45:43;;;;;;;9.47;5.97;;;18.10;99.90;;;;;;5032980;28;20453;-67
2022/08/14 06:48:15;;;;;;;5.57;5.07;;;18.20;99.90;;;;;;5032910;28;20998;-67
2022/08/14 06:50:42;;;;;;;6.23;4.80;;;18.40;99.90;;;;;;5033013;28;20879;-67
2022/08/14 06:53:10;;;;;;;5.73;5.23;;;18.50;99.90;;;;;;5032967;28;20452;-67
2022/08/14 06:55:37;;;;;;;5.30;4.80;;;18.70;99.90;;;;;;5032803;28;20448;-68
2022/08/14 06:58:04;;;;;;;6.20;4.97;;;18.70;99.90;;;;;;5032731;28;20491;-67
2022/08/14 07:00:31;;;;;;;5.57;4.93;;;18.90;99.90;;;;;;5032718;28;20449;-67
2022/08/14 07:05:46;;;;;;;5.63;5.03;;;19.20;99.90;;;;;;5033096;28;20563;-68
2022/08/14 07:08:15;;;;;;;5.87;5.37;;;19.30;99.90;;;;;;5032948;28;20487;-68
2022/08/14 07:10:43;;;;;;;6.00;5.50;;;19.50;99.90;;;;;;5033110;28;20487;-68
2022/08/14 07:13:10;;;;;;;5.70;5.20;;;19.60;99.90;;;;;;5032969;28;20455;-68
2022/08/14 07:15:38;;;;;;;6.87;6.17;;;19.70;99.90;;;;;;5032803;28;20445;-68
2022/08/14 07:18:07;;;;;;;9.60;5.70;;;19.80;99.90;;;;;;5032902;28;20495;-68
2022/08/14 07:20:34;;;;;;;8.20;7.00;;;20.00;99.90;;;;;;5033021;28;20447;-68
2022/08/14 07:23:02;;;;;;;7.50;6.90;;;20.10;99.90;;;;;;5032648;28;20455;-68
2022/08/14 07:25:29;;;;;;;6.60;6.00;;;20.20;99.90;;;;;;5031118;28;20448;-68
2022/08/14 07:27:56;;;;;;;6.30;5.70;;;20.30;99.90;;;;;;5032247;28;20565;-68
2022/08/14 07:30:23;;;;;;;7.13;4.93;;;20.60;99.90;;;;;;5032251;28;20488;-67
2022/08/14 07:32:51;;;;;;;5.50;5.00;;;20.70;99.90;;;;;;5032443;28;20877;-68
2022/08/14 07:35:19;;;;;;;7.20;5.10;;;20.90;99.90;;;;;;5031808;28;20460;-68
2022/08/14 07:37:48;;;;;;;4.93;4.27;;;20.90;99.90;;;;;;5031865;28;20477;-68
2022/08/14 07:40:16;;;;;;;5.43;4.93;;;21.00;99.90;;;;;;5031989;28;20445;-67
2022/08/14 07:42:43;;;;;;;5.77;4.60;;;21.10;99.90;;;;;;5032126;28;20449;-68
2022/08/14 07:45:11;;;;;;;7.60;5.07;;;21.30;99.90;;;;;;5031555;28;20441;-68
2022/08/14 07:47:41;;;;;;;7.10;5.10;;;21.50;99.80;;;;;;5031988;28;20469;-68
2022/08/14 07:50:14;;;;;;;9.47;5.57;;;21.70;98.80;;;;;;5031808;28;20950;-68
2022/08/14 07:52:43;;;;;;;6.10;5.50;;;21.80;98.70;;;;;;5031781;28;20951;-68
2022/08/14 07:55:11;;;;;;;5.87;5.37;;;21.90;99.50;;;;;;5031790;28;20460;-68
2022/08/14 07:57:39;;;;;;;6.10;5.00;;;22.00;98.60;;;;;;5031863;28;20469;-68
2022/08/14 08:00:11;;;;;;;5.20;4.80;;;22.10;99.00;;;;;;5031674;28;20445;-68
2022/08/14 08:02:39;;;;;;;5.50;4.57;;;22.20;98.00;;;;;;5030759;28;20760;-68
2022/08/14 08:05:07;;;;;;;5.53;5.00;;;22.40;97.20;;;;;;5031161;28;20213;-67
2022/08/14 08:07:35;;;;;;;4.60;4.20;;;22.60;96.40;;;;;;5031660;28;20469;-67
2022/08/14 08:10:29;;;;;;;6.50;4.67;;;22.70;95.90;;;;;;5031431;28;21101;-67
2022/08/14 08:12:57;;;;;;;5.60;4.80;;;22.90;94.90;;;;;;5031620;28;20480;-67
2022/08/14 08:15:25;;;;;;;4.40;3.90;;;23.10;94.80;;;;;;5031025;28;20554;-67
2022/08/14 08:17:52;;;;;;;5.50;4.43;;;23.30;93.50;;;;;;5031404;28;20464;-67
2022/08/14 08:20:24;;;;;;;4.70;4.00;;;23.50;93.90;;;;;;5031420;28;20445;-67
2022/08/14 08:22:51;;;;;;;4.30;3.90;;;23.70;92.50;;;;;;5031302;28;20451;-67
2022/08/14 08:25:19;;;;;;;6.53;4.17;;;23.80;91.80;;;;;;5031010;28;20455;-67
2022/08/14 08:27:57;;;;;;;5.30;3.90;;;24.00;90.10;;;;;;5031137;28;20483;-67
2022/08/14 08:30:24;;;;;;;3.77;3.47;;;24.20;90.60;;;;;;5030958;28;21097;-67
2022/08/14 08:32:53;;;;;;;4.47;3.40;;;24.40;90.40;;;;;;5031081;28;20480;-67
2022/08/14 08:35:22;;;;;;;4.10;3.67;;;24.50;90.40;;;;;;5030991;28;20835;-67
2022/08/14 08:37:50;;;;;;;4.10;3.33;;;24.70;88.90;;;;;;5031153;28;20483;-67
2022/08/14 08:40:25;;;;;;;5.73;3.40;;;24.80;86.40;;;;;;5030866;28;20452;-67
2022/08/14 08:42:52;;;;;;;3.97;3.57;;;25.00;85.60;;;;;;5031177;28;20445;-67
2022/08/14 08:45:22;;;;;;;4.30;3.73;;;25.30;84.60;;;;;;5030570;28;20456;-67
2022/08/14 08:47:50;;;;;;;3.33;3.03;;;25.40;81.00;;;;;;5030719;28;20892;-67
2022/08/14 08:50:19;;;;;;;3.70;3.37;;;25.60;81.40;;;;;;5030550;28;20444;-67
2022/08/14 08:52:50;;;;;;;4.70;3.80;;;25.80;79.10;;;;;;5030610;28;20511;-67
2022/08/14 08:55:26;;;;;;;3.53;3.20;;;25.90;77.70;;;;;;5030507;28;20456;-66
2022/08/14 08:57:57;;;;;;;4.17;3.77;;;26.10;77.80;;;;;;5030666;28;20830;-67
2022/08/14 09:00:25;;;;;;;4.10;3.60;;;26.30;75.60;;;;;;5030484;28;20445;-67
2022/08/14 09:02:58;;;;;;;3.30;3.00;;;26.50;77.60;;;;;;5030379;28;20445;-66
2022/08/14 09:05:25;;;;;;;4.90;3.43;;;26.70;76.90;;;;;;5030020;28;20946;-67
2022/08/14 09:07:52;;;;;;;4.37;3.97;;;26.80;74.70;;;;;;5030482;28;20469;-67
2022/08/14 09:10:19;;;;;;;4.20;3.80;;;27.00;74.40;;;;;;5030293;28;20452;-67
2022/08/14 09:12:47;;;;;;;3.90;3.50;;;27.20;73.60;;;;;;5030197;28;20445;-67
2022/08/14 09:15:14;;;;;;;4.97;3.70;;;27.20;71.20;;;;;;5030113;28;20836;-67
2022/08/14 09:17:42;;;;;;;4.03;3.73;;;27.40;72.00;;;;;;5030142;28;20468;-66
2022/08/14 09:20:09;;;;;;;3.70;3.40;;;27.60;71.00;;;;;;5030264;28;20974;-67
2022/08/14 09:22:36;;;;;;;4.27;3.97;;;27.80;70.20;;;;;;5030558;28;20846;-67
2022/08/14 09:25:05;;;;;;;3.90;3.60;;;28.00;68.00;;;;;;5030059;28;20955;-67
2022/08/14 09:27:32;;;;;;;4.33;3.93;;;28.20;68.40;;;;;;5030301;28;20472;-67
2022/08/14 09:30:00;;;;;;;4.77;3.60;;;28.30;67.40;;;;;;5030514;28;20455;-67
2022/08/14 09:32:35;;;;;;;3.80;3.50;;;28.40;65.20;;;;;;5030093;28;20472;-67
2022/08/14 09:35:11;;;;;;;4.50;3.40;;;28.60;67.50;;;;;;5030320;28;20441;-66
2022/08/14 09:37:47;;;;;;;3.47;3.17;;;28.90;65.50;;;;;;5030732;28;20921;-66
2022/08/14 09:40:35;;;;;;;3.77;3.47;;;29.00;64.90;;;;;;5030406;28;20448;-67
2022/08/14 09:43:11;;;;;;;5.50;3.53;;;29.30;64.60;;;;;;5031165;28;20452;-67
2022/08/14 09:45:46;;;;;;;6.10;3.63;;;29.90;63.00;;;;;;5030249;28;20502;-67
2022/08/14 09:48:16;;;;;;;5.10;3.97;;;30.60;59.70;;;;;;5029722;28;20522;-67
2022/08/14 09:50:48;;;;;;;4.73;3.37;;;31.50;59.00;;;;;;5030100;28;20453;-68
2022/08/14 09:53:18;;;;;;;3.97;3.67;;;32.20;57.80;;;;;;5030055;28;20444;-67
2022/08/14 09:55:45;;;;;;;4.30;3.30;;;32.70;54.60;;;;;;5029635;28;20437;-67
2022/08/14 09:58:14;;;;;;;3.60;3.00;;;32.90;53.30;;;;;;5029984;28;20472;-67
2022/08/14 10:00:47;;;;;;;4.73;3.00;;;33.20;53.00;;;;;;5030089;28;20453;-67
2022/08/14 10:03:26;;;;;;;4.17;2.87;;;33.50;52.40;;;;;;5029888;28;20456;-68
2022/08/14 10:06:08;;;;;;;4.70;3.30;;;33.90;51.70;;;;;;5029598;28;20844;-68
2022/08/14 10:08:44;;;;;;;5.73;3.73;;;34.00;49.50;;;;;;5029740;28;20445;-67
2022/08/14 10:11:16;;;;;;;3.87;3.53;;;34.20;49.80;;;;;;5029552;28;20841;-67
2022/08/14 10:13:43;;;;;;;3.50;3.20;;;34.20;49.60;;;;;;5029734;28;20837;-67
2022/08/14 10:16:13;;;;;;;3.47;3.17;;;34.30;49.00;;;;;;5029170;28;20849;-67
2022/08/14 10:18:40;;;;;;;3.93;3.63;;;34.20;47.80;;;;;;5029616;28;20453;-68
2022/08/14 10:21:16;;;;;;;3.50;3.20;;;34.30;49.60;;;;;;5029837;28;20445;-67
2022/08/14 10:23:48;;;;;;;4.63;3.00;;;34.40;48.60;;;;;;5029739;28;20899;-67
2022/08/14 10:26:17;;;;;;;3.57;3.27;;;34.30;47.30;;;;;;5029369;28;20492;-67
2022/08/14 10:28:46;;;;;;;4.27;3.87;;;34.30;47.60;;;;;;5029989;28;20460;-67
2022/08/14 10:31:19;;;;;;;4.00;3.30;;;34.30;47.20;;;;;;5030478;28;20484;-68
2022/08/14 10:33:59;;;;;;;4.20;3.33;;;34.10;47.40;;;;;;5030413;28;20452;-67
2022/08/14 10:36:31;;;;;;;6.43;3.20;;;34.50;47.50;;;;;;5030303;28;20492;-68
2022/08/14 10:39:00;;;;;;;4.20;3.30;;;34.90;47.50;;;;;;5030600;28;20445;-68
2022/08/14 10:41:38;;;;;;;3.40;3.10;;;34.90;45.80;;;;;;5029752;28;20457;-68
2022/08/14 10:44:11;;;;;;;3.77;3.17;;;34.70;46.10;;;;;;5029264;28;21023;-67
2022/08/14 10:46:45;;;;;;;4.00;3.40;;;34.60;45.80;;;;;;5029043;28;20476;-67
2022/08/14 10:49:20;;;;;;;4.80;3.03;;;35.00;46.10;;;;;;5029384;28;20502;-67
2022/08/14 10:52:02;;;;;;;4.23;3.00;;;35.40;45.20;;;;;;5029036;28;20487;-67
2022/08/14 10:54:31;;;;;;;6.33;4.20;;;35.40;44.30;;;;;;5029125;28;20448;-67
2022/08/14 10:56:59;;;;;;;3.50;3.20;;;35.40;44.00;;;;;;5029440;28;20508;-67
2022/08/14 10:59:26;;;;;;;3.60;3.20;;;35.40;44.50;;;;;;5029369;28;20460;-67
2022/08/14 11:01:57;;;;;;;3.80;3.40;;;35.40;44.10;;;;;;5032109;28;20927;-68
2022/08/14 11:04:27;;;;;;;3.87;3.57;;;35.30;44.80;;;;;;5032687;28;20462;-67
2022/08/14 11:06:55;;;;;;;3.67;3.37;;;35.30;43.80;;;;;;5032911;28;20504;-67
2022/08/14 11:09:22;;;;;;;3.60;3.30;;;35.30;44.70;;;;;;5032970;28;20457;-68
2022/08/14 11:11:54;;;;;;;5.20;3.70;;;35.30;45.60;;;;;;5032516;28;20485;-68
2022/08/14 11:14:21;;;;;;;4.27;3.57;;;35.40;43.80;;;;;;5032593;28;21015;-68
2022/08/14 11:16:50;;;;;;;3.60;3.30;;;35.50;44.40;;;;;;5032109;28;20460;-67
2022/08/14 11:19:21;;;;;;;3.50;3.20;;;35.80;43.50;;;;;;5032668;28;20460;-66
2022/08/14 11:21:49;;;;;;;3.60;3.30;;;36.10;42.50;;;;;;5032679;28;20452;-67
2022/08/14 11:24:21;;;;;;;4.10;3.67;;;36.40;42.50;;;;;;5032692;28;20445;-67
2022/08/14 11:26:48;;;;;;;3.77;3.40;;;36.40;42.50;;;;;;5032303;28;20534;-67
2022/08/14 11:29:16;;;;;;;5.30;3.30;;;36.40;42.20;;;;;;5032202;28;20449;-67
2022/08/14 11:31:43;;;;;;;3.23;2.93;;;36.30;41.20;;;;;;5032537;28;20541;-67
2022/08/14 11:34:11;;;;;;;3.87;3.57;;;36.10;44.10;;;;;;5032449;28;20449;-67
2022/08/14 11:36:41;;;;;;;4.13;3.77;;;36.30;41.50;;;;;;5032056;28;20472;-67
2022/08/14 11:39:07;;;;;;;4.50;3.83;;;36.60;40.70;;;;;;5032375;28;20453;-67
2022/08/14 11:41:34;;;;;;;4.20;3.80;;;36.50;41.10;;;;;;5032296;28;20536;-67
2022/08/14 11:44:01;;;;;;;3.70;3.40;;;36.70;40.60;;;;;;5032304;28;20499;-67
2022/08/14 11:46:28;;;;;;;3.83;3.53;;;37.00;41.20;;;;;;5032153;28;20483;-67
2022/08/14 11:48:56;;;;;;;4.97;3.63;;;37.00;41.60;;;;;;5032388;28;20453;-67
2022/08/14 11:51:26;;;;;;;3.63;3.20;;;37.40;41.00;;;;;;5032136;28;20476;-67
2022/08/14 11:53:57;;;;;;;3.73;3.40;;;37.70;40.10;;;;;;5032209;28;20511;-67
2022/08/14 11:56:24;;;;;;;5.37;3.73;;;37.90;40.20;;;;;;5031537;28;21082;-67
2022/08/14 11:58:53;;;;;;;4.20;3.27;;;38.00;39.50;;;;;;5032074;28;20445;-67
2022/08/14 12:01:29;;;;;;;3.70;3.40;;;38.20;39.10;;;;;;5032007;28;20459;-67
2022/08/14 12:04:07;;;;;;;4.30;3.73;;;38.70;38.80;;;;;;5031748;28;20453;-68
2022/08/14 12:06:47;;;;;;;3.93;3.53;;;39.10;38.00;;;;;;5031352;28;20979;-66
2022/08/14 12:09:28;;;;;;;3.63;3.30;;;39.10;36.20;;;;;;5031798;28;20445;-67
2022/08/14 12:11:55;;;;;;;3.70;3.23;;;39.00;37.50;;;;;;5031235;28;20538;-68
2022/08/14 12:14:22;;;;;;;4.10;3.70;;;38.90;36.10;;;;;;5031309;28;20966;-67
2022/08/14 12:16:59;;;;;;;3.60;3.30;;;38.70;37.30;;;;;;5031238;28;21001;-66
2022/08/14 12:19:26;;;;;;;3.13;2.83;;;38.90;36.60;;;;;;5031600;28;20456;-67
2022/08/14 12:21:53;;;;;;;3.90;3.47;;;39.40;37.60;;;;;;5031591;28;20479;-68
2022/08/14 12:24:28;;;;;;;4.50;3.37;;;39.60;35.90;;;;;;5031344;28;20472;-67
2022/08/14 12:26:56;;;;;;;3.40;2.90;;;40.00;35.90;;;;;;5031134;28;20498;-66
2022/08/14 12:29:23;;;;;;;3.20;2.90;;;40.30;36.10;;;;;;5030997;28;20457;-67
2022/08/14 12:31:59;;;;;;;4.67;4.27;;;40.50;36.30;;;;;;5031038;28;21018;-67
2022/08/14 12:34:31;;;;;;;3.90;3.60;;;41.00;34.50;;;;;;5030935;28;20837;-66
2022/08/14 12:37:05;;;;;;;5.03;4.10;;;41.50;32.80;;;;;;5030964;28;20460;-68
2022/08/14 12:39:34;;;;;;;4.60;3.43;;;41.10;32.70;;;;;;5031086;28;20543;-68
2022/08/14 12:42:05;;;;;;;4.80;3.27;;;41.10;34.00;;;;;;5030763;28;20445;-67
2022/08/14 12:44:34;;;;;;;3.50;3.00;;;41.20;33.00;;;;;;5030838;28;20456;-68
2022/08/14 12:47:06;;;;;;;3.50;3.20;;;41.50;31.00;;;;;;5030980;28;20549;-66
2022/08/14 12:49:33;;;;;;;3.70;3.30;;;41.60;30.20;;;;;;5030805;28;20535;-67
2022/08/14 12:52:02;;;;;;;4.33;3.20;;;41.50;29.90;;;;;;5030758;28;20480;-68
2022/08/14 12:54:29;;;;;;;4.20;3.33;;;41.10;32.00;;;;;;5030415;28;20457;-68
2022/08/14 12:57:09;;;;;;;3.23;2.70;;;41.10;31.30;;;;;;5030663;28;20468;-68
2022/08/14 12:59:36;;;;;;;5.10;2.90;;;41.30;31.40;;;;;;5030552;28;20510;-67
2022/08/14 13:02:03;;;;;;;2.77;2.27;;;41.60;30.80;;;;;;5030791;28;20437;-67
2022/08/14 13:04:31;;;;;;;2.90;2.70;;;41.80;29.90;;;;;;5030265;28;20440;-67
2022/08/14 13:07:07;;;;;;;2.90;2.23;;;41.80;29.50;;;;;;5030364;28;20818;-68
2022/08/14 13:09:34;;;;;;;3.13;2.63;;;41.50;29.90;;;;;;5030746;28;20463;-68
2022/08/14 13:12:04;;;;;;;2.47;2.27;;;40.80;29.60;;;;;;5030415;28;20517;-67
2022/08/14 13:14:33;;;;;;;2.73;2.50;;;40.90;31.80;;;;;;5030272;28;20464;-68
2022/08/14 13:17:01;;;;;;;4.60;3.20;;;41.50;30.40;;;;;;5030461;28;20473;-68